Aérodrome :
LOGIN :

S'inscrire | Disclaimer

   EN    FR    IT 

 










Légende :    VFR   VFR Marginal   IFR   IFR Intensif   IFR Très Intensif
Visi : 
Plafond : 
>= 8 km
>= 3000ft
5 à 8 km
1000 à 3000 ft
1500m à 5 km
500 à 1000 ft
800 à 1500m
200 à 500 ft
< 800m
< 200 ft
Symboles :   Orages  Brouillard  Fortes neiges  Fortes précipitations  Vent > 20 kt
SIGMETs :   Divers  Orages  Givrage  Turbulence  Onde Orograph.  Cendres Volcan.







- Altitude de l'aérodrome : 602 ft
- Code IATA : NVS
- Voir les cartes d'approche


LFQG - Nevers

DERNIER METAR :
  • 140800Z AUTO 23007KT 200V270 CAVOK 07/03 Q1008

METARs EXPIRÉS :
  • 140730Z AUTO 23008KT 200V260 9999 FEW033 OVC210 07/04 Q1008
  • 140700Z AUTO 22004KT 9999 BKN028 BKN042 OVC210 07/04 Q1008
  • 140630Z AUTO 25008KT 210V270 9999 SCT028 BKN040 BKN074 07/04 Q1008
  • 140600Z AUTO 25009KT 220V280 9999 FEW023 SCT084 BKN240 07/04 Q1008

TAF N/A
Pas de NOTAMs connus pour ce terrain.
2 SIGMETs publiés pour la FIR Paris (LFFF) :
 
Turbulence forte
LFFF SIGMET 5 VALID 140730/140900 LFPW
LFFF PARIS FIR/UIR SEV TURB OBS AT 0730Z NW OF LINE N4900 W00015 - N5100 E00230 SFC/FL060 STNR WKN=
Orages noyés dans la masse
LFFF SIGMET 4 VALID 140625/140830 LFPW
LFFF PARIS FIR/UIR EMBD TS OBS AT 0625Z WI N5000 W00015 - N5100 E00145 - N5000 E00215 - N4915 W00015 - N5000 W00015 TOP FL280 MOV E 40KT NC=



MET'MAP, la Météo Aéronautique d'un coup d'oeil ! - Copyright ORBIFLY Décembre 2007 - Disclaimer

ORBIFLY MET'MAP TEAM :

Programmation & Développement : Alexandra Zaïnal
Conception & Développement : Baudouin d'Aumeries
Co-Programmation & Développement : Marc-Olivier Méhu
Soutien technique & logistique : Manuel Goepfert

Contact : metmap@orbifly.com




SOURCES & CREDITS :

   NOAA